createdAt,value
2023-03-22T00:01:24.737Z,6.42
2023-03-22T00:03:52.170Z,6.37
2023-03-22T00:06:19.019Z,6.23
2023-03-22T00:08:49.315Z,6.43
2023-03-22T00:11:16.200Z,6.39
2023-03-22T00:13:44.111Z,6.46
2023-03-22T00:16:10.941Z,6.44
2023-03-22T00:18:37.604Z,6.39
2023-03-22T00:21:04.949Z,6.42
2023-03-22T00:23:31.833Z,6.44
2023-03-22T00:25:58.439Z,6.25
2023-03-22T00:28:25.017Z,6.46
2023-03-22T00:30:55.514Z,6.28
2023-03-22T00:33:22.811Z,6.43
2023-03-22T00:35:51.371Z,6.42
2023-03-22T00:38:18.001Z,6.29
2023-03-22T00:40:44.834Z,6.18
2023-03-22T00:43:11.507Z,6.25
2023-03-22T00:45:38.092Z,6.43
2023-03-22T00:48:06.967Z,6.38
2023-03-22T00:50:33.677Z,6.50
2023-03-22T00:53:00.252Z,6.48
2023-03-22T00:55:26.911Z,6.37
2023-03-22T00:57:53.606Z,6.28
2023-03-22T01:00:20.548Z,6.40
2023-03-22T01:02:47.205Z,6.38
2023-03-22T01:05:20.056Z,6.34
2023-03-22T01:07:46.654Z,6.31
2023-03-22T01:10:13.300Z,6.31
2023-03-22T01:12:39.955Z,6.21
2023-03-22T01:15:07.877Z,6.30
2023-03-22T01:17:34.652Z,6.30
2023-03-22T01:20:01.250Z,6.27
2023-03-22T01:22:30.128Z,6.11
2023-03-22T01:24:57.087Z,6.24
2023-03-22T01:27:23.634Z,6.28
2023-03-22T01:29:50.167Z,6.22
2023-03-22T01:32:17.102Z,6.18
2023-03-22T01:34:43.673Z,6.18
2023-03-22T01:37:10.435Z,6.14
2023-03-22T01:39:44.866Z,6.16
2023-03-22T01:42:14.521Z,6.15
2023-03-22T01:44:42.566Z,6.27
2023-03-22T01:47:10.358Z,6.09
2023-03-22T01:49:38.165Z,6.14
2023-03-22T01:52:08.860Z,6.15
2023-03-22T01:54:59.933Z,6.14
2023-03-22T01:57:41.222Z,6.14
2023-03-22T02:00:13.648Z,6.01
2023-03-22T02:02:40.427Z,6.08
2023-03-22T02:05:20.406Z,6.09
2023-03-22T02:07:47.197Z,6.01
2023-03-22T02:10:18.879Z,6.11
2023-03-22T02:13:12.808Z,6.18
2023-03-22T02:16:07.292Z,6.11
2023-03-22T02:18:59.805Z,5.94
2023-03-22T02:21:59.602Z,5.85
2023-03-22T02:24:41.303Z,6.07
2023-03-22T02:27:39.065Z,6.13
2023-03-22T02:30:32.262Z,6.05
2023-03-22T02:33:25.997Z,6.10
2023-03-22T02:36:14.992Z,6.09
2023-03-22T02:39:07.727Z,6.01
2023-03-22T02:41:47.518Z,6.09
2023-03-22T02:44:23.775Z,6.08
2023-03-22T02:46:58.294Z,5.88
2023-03-22T02:49:33.106Z,5.96
2023-03-22T02:52:03.544Z,5.90
2023-03-22T02:54:40.083Z,5.82
2023-03-22T02:57:11.609Z,5.87
2023-03-22T02:59:40.808Z,5.84
2023-03-22T03:02:11.112Z,5.83
2023-03-22T03:04:43.517Z,5.80
2023-03-22T03:07:13.872Z,5.75
2023-03-22T03:09:42.491Z,5.66
2023-03-22T03:12:15.962Z,5.66
2023-03-22T03:14:42.728Z,5.46
2023-03-22T03:17:26.884Z,5.57
2023-03-22T03:20:05.603Z,5.54
2023-03-22T03:22:45.509Z,5.54
2023-03-22T03:25:23.999Z,5.39
2023-03-22T03:27:58.486Z,5.38
2023-03-22T03:30:32.049Z,5.39
2023-03-22T03:33:05.078Z,5.34
2023-03-22T03:35:36.444Z,5.40
2023-03-22T03:38:08.346Z,5.28
2023-03-22T03:40:40.681Z,5.30
2023-03-22T03:43:09.176Z,5.30
2023-03-22T03:45:37.461Z,5.17
2023-03-22T03:48:09.095Z,5.20
2023-03-22T03:50:38.377Z,5.26
2023-03-22T03:53:05.348Z,5.17
2023-03-22T03:55:33.229Z,5.01
2023-03-22T03:58:01.107Z,5.04
2023-03-22T04:00:27.919Z,5.10
2023-03-22T04:03:17.798Z,5.04
2023-03-22T04:06:02.920Z,5.00
2023-03-22T04:08:33.757Z,4.97
2023-03-22T04:11:00.656Z,4.95
2023-03-22T04:13:29.731Z,4.91
2023-03-22T04:15:59.375Z,4.90
2023-03-22T04:18:25.937Z,4.82
2023-03-22T04:20:52.526Z,4.82
2023-03-22T04:23:20.667Z,4.79
2023-03-22T04:25:47.206Z,4.74
2023-03-22T04:28:13.759Z,4.68
2023-03-22T04:30:42.183Z,4.67
2023-03-22T04:33:27.853Z,4.63
2023-03-22T04:36:14.631Z,4.55
2023-03-22T04:38:52.158Z,4.36
2023-03-22T04:41:23.065Z,4.48
2023-03-22T04:43:52.139Z,4.41
2023-03-22T04:46:20.453Z,4.38
2023-03-22T04:48:52.988Z,4.10
2023-03-22T04:51:21.049Z,4.35
2023-03-22T04:54:12.489Z,3.84
2023-03-22T04:56:41.382Z,4.30
2023-03-22T04:59:07.888Z,4.32
2023-03-22T05:01:35.863Z,4.31
2023-03-22T05:04:17.220Z,4.28
2023-03-22T05:06:44.905Z,4.27
2023-03-22T05:09:17.810Z,4.08
2023-03-22T05:11:46.038Z,4.18
2023-03-22T05:14:25.656Z,4.19
2023-03-22T05:16:54.109Z,4.16
2023-03-22T05:19:20.974Z,4.15
2023-03-22T05:21:48.398Z,4.10
2023-03-22T05:24:15.477Z,4.15
2023-03-22T05:26:46.356Z,4.06
2023-03-22T05:29:13.675Z,4.15
2023-03-22T05:32:02.934Z,4.14
2023-03-22T05:34:29.840Z,4.15
2023-03-22T05:36:56.488Z,4.17
2023-03-22T05:39:30.010Z,4.12
2023-03-22T05:41:57.706Z,4.22
2023-03-22T05:44:24.272Z,4.18
2023-03-22T05:47:02.207Z,4.16
2023-03-22T05:49:39.270Z,4.15
2023-03-22T05:52:06.972Z,4.17
2023-03-22T05:54:57.580Z,4.20
2023-03-22T05:57:24.280Z,4.18
2023-03-22T05:59:50.882Z,4.23
2023-03-22T06:02:25.533Z,4.28
2023-03-22T06:04:52.192Z,4.30
2023-03-22T06:07:20.456Z,4.39
2023-03-22T06:09:52.093Z,4.53
2023-03-22T06:12:22.100Z,4.62
2023-03-22T06:14:52.537Z,4.77
2023-03-22T06:17:31.351Z,4.87
2023-03-22T06:19:58.287Z,5.04
2023-03-22T06:22:24.892Z,5.14
2023-03-22T06:24:52.274Z,5.25
2023-03-22T06:27:29.138Z,5.35
2023-03-22T06:29:55.808Z,5.54
2023-03-22T06:32:25.411Z,5.52
2023-03-22T06:34:53.994Z,5.78
2023-03-22T06:37:23.190Z,5.82
2023-03-22T06:39:50.154Z,5.97
2023-03-22T06:42:17.128Z,6.08
2023-03-22T06:44:47.210Z,6.17
2023-03-22T06:47:25.682Z,6.28
2023-03-22T06:50:14.079Z,6.22
2023-03-22T06:53:01.080Z,6.48
2023-03-22T06:55:27.758Z,6.56
2023-03-22T06:57:55.058Z,6.67
2023-03-22T07:00:22.176Z,6.77
2023-03-22T07:02:50.859Z,6.87
2023-03-22T07:05:28.956Z,6.97
2023-03-22T07:07:55.641Z,7.14
2023-03-22T07:10:22.500Z,7.01
2023-03-22T07:12:50.304Z,7.42
2023-03-22T07:15:17.399Z,7.54
2023-03-22T07:18:07.301Z,7.72
2023-03-22T07:20:36.152Z,7.87
2023-03-22T07:23:02.810Z,8.04
2023-03-22T07:25:33.396Z,8.14
2023-03-22T07:28:13.845Z,8.25
2023-03-22T07:30:41.922Z,8.37
2023-03-22T07:33:10.301Z,8.49
2023-03-22T07:35:39.693Z,8.66
2023-03-22T07:38:06.491Z,8.74
2023-03-22T07:40:33.908Z,8.74
2023-03-22T07:43:00.557Z,9.08
2023-03-22T07:45:48.477Z,9.40
2023-03-22T07:48:33.522Z,9.34
2023-03-22T07:51:33.845Z,9.67
2023-03-22T07:54:01.132Z,9.74
2023-03-22T07:56:27.676Z,9.94
2023-03-22T07:58:54.573Z,10.05
2023-03-22T08:01:21.138Z,10.22
2023-03-22T08:04:08.106Z,10.27
2023-03-22T08:07:05.092Z,10.42
2023-03-22T08:09:31.790Z,10.57
2023-03-22T08:11:58.488Z,10.70
2023-03-22T08:14:35.908Z,10.81
2023-03-22T08:17:05.880Z,10.93
2023-03-22T08:19:33.350Z,10.99
2023-03-22T08:22:00.150Z,11.12
2023-03-22T08:24:50.370Z,11.17
2023-03-22T08:27:26.858Z,11.13
2023-03-22T08:29:54.644Z,11.30
2023-03-22T08:32:21.352Z,11.24
2023-03-22T08:34:48.483Z,11.46
2023-03-22T08:37:15.042Z,11.43
2023-03-22T08:39:44.143Z,11.57
2023-03-22T08:42:24.272Z,11.96
2023-03-22T08:44:51.202Z,12.14
2023-03-22T08:47:19.304Z,12.27
2023-03-22T08:49:49.663Z,12.36
2023-03-22T08:52:23.012Z,12.56
2023-03-22T08:54:56.696Z,12.65
2023-03-22T08:57:43.791Z,12.70
2023-03-22T09:00:27.605Z,12.59
2023-03-22T09:03:01.403Z,12.65
2023-03-22T09:05:28.065Z,12.88
2023-03-22T09:07:55.682Z,12.95
2023-03-22T09:10:37.679Z,13.05
2023-03-22T09:13:06.117Z,13.23
2023-03-22T09:15:33.297Z,13.41
2023-03-22T09:18:15.047Z,13.45
2023-03-22T09:20:45.534Z,13.50
2023-03-22T09:23:13.911Z,13.74
2023-03-22T09:25:42.969Z,13.98
2023-03-22T09:28:11.047Z,14.12
2023-03-22T09:30:38.368Z,14.01
2023-03-22T09:33:08.113Z,14.08
2023-03-22T09:35:40.667Z,14.16
2023-03-22T09:38:10.200Z,14.21
2023-03-22T09:40:43.664Z,14.16
2023-03-22T09:43:14.969Z,14.19
2023-03-22T09:45:46.338Z,13.86
2023-03-22T09:48:18.386Z,14.01
2023-03-22T09:50:48.192Z,13.92
2023-03-22T09:53:17.167Z,13.91
2023-03-22T09:55:50.323Z,13.95
2023-03-22T09:58:24.877Z,13.92
2023-03-22T10:00:57.764Z,13.80
2023-03-22T10:03:38.167Z,14.02
2023-03-22T10:06:09.717Z,14.00
2023-03-22T10:08:53.050Z,13.66
2023-03-22T10:11:25.335Z,13.91
2023-03-22T10:14:09.388Z,14.39
2023-03-22T10:16:36.284Z,14.36
2023-03-22T10:19:07.973Z,14.54
2023-03-22T10:21:35.509Z,14.50
2023-03-22T10:24:09.131Z,14.41
2023-03-22T10:29:29.846Z,14.20
2023-03-22T10:32:11.763Z,14.65
2023-03-22T10:34:38.445Z,14.62
2023-03-22T10:37:06.370Z,14.64
2023-03-22T10:39:41.112Z,14.63
2023-03-22T10:42:13.286Z,14.94
2023-03-22T10:44:47.700Z,14.88
2023-03-22T10:47:18.621Z,14.70
2023-03-22T10:49:49.795Z,15.24
2023-03-22T10:52:33.432Z,15.48
2023-03-22T10:55:04.195Z,15.61
2023-03-22T10:57:31.166Z,15.65
2023-03-22T10:59:59.202Z,15.49
2023-03-22T11:02:27.704Z,15.52
2023-03-22T11:04:56.084Z,15.50
2023-03-22T11:07:33.166Z,15.53
2023-03-22T11:10:12.515Z,15.33
2023-03-22T11:12:43.668Z,15.48
2023-03-22T11:15:22.427Z,15.58
2023-03-22T11:17:49.478Z,15.57
2023-03-22T11:20:17.451Z,15.83
2023-03-22T11:22:46.341Z,15.89
2023-03-22T11:25:15.738Z,15.73
2023-03-22T11:27:51.633Z,15.78
2023-03-22T11:30:22.749Z,15.78
2023-03-22T11:32:59.428Z,15.82
2023-03-22T11:35:26.571Z,15.66
2023-03-22T11:37:55.416Z,15.72
2023-03-22T11:40:24.040Z,15.77
2023-03-22T11:42:54.164Z,15.66
2023-03-22T11:45:26.853Z,15.78
2023-03-22T11:47:54.636Z,15.62
2023-03-22T11:50:27.762Z,15.53
2023-03-22T11:52:54.729Z,15.55
2023-03-22T11:55:21.345Z,15.60
2023-03-22T11:57:47.961Z,15.58
2023-03-22T12:00:20.344Z,15.61
2023-03-22T12:02:52.790Z,15.65
2023-03-22T12:05:22.402Z,15.58
2023-03-22T12:07:53.335Z,15.64
2023-03-22T12:10:26.255Z,15.62
2023-03-22T12:12:56.057Z,15.51
2023-03-22T12:15:24.112Z,15.44
2023-03-22T12:17:58.401Z,15.46
2023-03-22T12:20:35.236Z,15.70
2023-03-22T12:23:02.717Z,15.71
2023-03-22T12:25:32.960Z,15.57
2023-03-22T12:28:03.309Z,15.37
2023-03-22T12:30:33.879Z,15.49
2023-03-22T12:33:06.036Z,15.49
2023-03-22T12:35:36.020Z,15.55
2023-03-22T12:38:23.155Z,15.63
2023-03-22T12:40:51.325Z,15.64
2023-03-22T12:43:34.534Z,15.53
2023-03-22T12:46:03.330Z,15.38
2023-03-22T12:48:38.627Z,15.29
2023-03-22T12:51:07.019Z,15.03
2023-03-22T12:53:35.402Z,15.25
2023-03-22T12:56:02.667Z,15.08
2023-03-22T12:58:29.260Z,15.12
2023-03-22T13:00:59.007Z,14.83
2023-03-22T13:03:28.542Z,14.96
2023-03-22T13:06:05.705Z,14.91
2023-03-22T13:09:10.561Z,14.92
2023-03-22T13:11:37.319Z,14.81
2023-03-22T13:14:03.921Z,14.66
2023-03-22T13:16:51.346Z,14.53
2023-03-22T13:19:35.200Z,14.65
2023-03-22T13:22:21.683Z,14.45
2023-03-22T13:24:59.412Z,14.42
2023-03-22T13:27:34.684Z,14.36
2023-03-22T13:30:01.689Z,14.19
2023-03-22T13:32:30.616Z,14.19
2023-03-22T13:34:57.527Z,14.03
2023-03-22T13:37:32.636Z,14.13
2023-03-22T13:39:59.428Z,14.07
2023-03-22T13:42:34.888Z,14.06
2023-03-22T13:45:01.927Z,13.99
2023-03-22T13:47:36.065Z,13.94
2023-03-22T13:50:11.228Z,13.75
2023-03-22T13:52:42.661Z,13.96
2023-03-22T13:55:41.361Z,13.88
2023-03-22T13:58:11.118Z,13.84
2023-03-22T14:00:55.479Z,13.77
2023-03-22T14:03:29.890Z,13.85
2023-03-22T14:06:13.484Z,13.86
2023-03-22T14:08:45.795Z,13.95
2023-03-22T14:11:24.052Z,13.90
2023-03-22T14:13:53.804Z,13.89
2023-03-22T14:16:33.701Z,14.00
2023-03-22T14:19:00.806Z,13.91
2023-03-22T14:21:35.360Z,13.99
